createdAt,value
2022-10-12T00:03:24.241Z,10.27
2022-10-12T00:08:27.012Z,10.43
2022-10-12T00:13:31.348Z,12.80
2022-10-12T00:18:34.635Z,10.13
2022-10-12T00:23:38.432Z,12.67
2022-10-12T00:28:43.100Z,9.50
2022-10-12T00:33:46.070Z,9.30
2022-10-12T00:38:50.292Z,12.07
2022-10-12T00:43:58.536Z,11.10
2022-10-12T00:49:09.733Z,9.60
2022-10-12T00:54:16.368Z,12.67
2022-10-12T00:59:24.315Z,8.40
2022-10-12T01:04:27.444Z,8.67
2022-10-12T01:09:31.094Z,8.77
2022-10-12T01:14:36.265Z,10.33
2022-10-12T01:20:12.587Z,12.00
2022-10-12T01:25:31.477Z,12.40
2022-10-12T01:30:41.247Z,9.97
2022-10-12T01:35:50.916Z,10.67
2022-10-12T01:40:59.109Z,11.37
2022-10-12T01:46:08.532Z,11.83
2022-10-12T01:51:13.924Z,10.47
2022-10-12T01:56:21.216Z,10.67
2022-10-12T02:01:32.031Z,12.60
2022-10-12T02:06:40.489Z,16.93
2022-10-12T02:11:45.234Z,10.53
2022-10-12T02:16:55.839Z,12.63
2022-10-12T02:22:03.515Z,12.13
2022-10-12T02:27:07.963Z,11.07
2022-10-12T02:32:19.049Z,15.93
2022-10-12T02:37:33.002Z,14.77
2022-10-12T02:43:08.406Z,14.37
2022-10-12T02:48:06.787Z,13.30
2022-10-12T02:53:10.148Z,15.47
2022-10-12T02:58:13.176Z,9.90
2022-10-12T03:03:17.379Z,10.43
2022-10-12T03:08:20.250Z,6.83
2022-10-12T03:13:23.019Z,20.47
2022-10-12T03:18:27.093Z,12.43
2022-10-12T03:23:29.944Z,10.83
2022-10-12T03:28:32.933Z,11.33
2022-10-12T03:33:37.128Z,14.50
2022-10-12T03:38:39.878Z,12.37
2022-10-12T03:43:43.025Z,13.17
2022-10-12T03:48:47.091Z,14.00
2022-10-12T03:53:49.887Z,11.90
2022-10-12T03:58:52.971Z,15.80
2022-10-12T04:03:57.099Z,12.00
2022-10-12T04:08:59.884Z,8.93
2022-10-12T04:14:02.766Z,12.83
2022-10-12T04:19:06.866Z,11.50
2022-10-12T04:24:09.836Z,8.83
2022-10-12T04:29:13.818Z,9.97
2022-10-12T04:34:17.915Z,13.83
2022-10-12T04:39:20.747Z,12.00
2022-10-12T04:44:27.290Z,13.90
2022-10-12T04:49:33.978Z,10.60
2022-10-12T04:54:36.791Z,16.97
2022-10-12T04:59:39.503Z,11.90
2022-10-12T05:04:43.721Z,17.50
2022-10-12T05:09:46.518Z,9.87
2022-10-12T05:14:49.263Z,12.47
2022-10-12T05:19:53.335Z,9.50
2022-10-12T05:24:56.105Z,14.70
2022-10-12T05:29:58.846Z,13.07
2022-10-12T05:35:03.045Z,12.90
2022-10-12T05:40:06.752Z,11.37
2022-10-12T05:45:10.313Z,12.00
2022-10-12T05:50:14.413Z,10.57
2022-10-12T05:55:17.332Z,12.37
2022-10-12T06:00:20.636Z,12.80
2022-10-12T06:05:25.064Z,19.63
2022-10-12T06:10:30.057Z,30.37
2022-10-12T06:15:32.978Z,19.03
2022-10-12T06:20:37.026Z,8.73
2022-10-12T06:25:39.794Z,15.33
2022-10-12T06:30:42.538Z,16.00
2022-10-12T06:35:46.719Z,14.83
2022-10-12T06:40:49.523Z,12.93
2022-10-12T06:45:52.430Z,13.93
2022-10-12T06:50:56.847Z,12.73
2022-10-12T06:55:59.854Z,12.10
2022-10-12T07:01:04.263Z,8.30
2022-10-12T07:06:10.545Z,15.10
2022-10-12T07:11:14.981Z,9.83
2022-10-12T07:16:17.810Z,12.10
2022-10-12T07:21:21.942Z,9.33
2022-10-12T07:26:24.687Z,10.27
2022-10-12T07:31:29.452Z,11.80
2022-10-12T07:36:57.466Z,8.70
2022-10-12T07:41:57.212Z,6.15
2022-10-12T07:47:00.022Z,7.03
2022-10-12T07:52:04.203Z,10.50
2022-10-12T07:57:07.041Z,7.00
2022-10-12T08:02:12.355Z,8.77
2022-10-12T08:07:16.659Z,15.40
2022-10-12T08:12:19.427Z,27.00
2022-10-12T08:17:22.250Z,23.88
2022-10-12T08:22:26.355Z,9.90
2022-10-12T08:27:31.821Z,10.32
2022-10-12T08:32:34.770Z,12.90
2022-10-12T08:37:39.190Z,21.52
2022-10-12T08:42:52.186Z,7.85
2022-10-12T08:47:58.146Z,6.55
2022-10-12T08:53:08.285Z,5.85
2022-10-12T08:58:16.581Z,8.20
2022-10-12T09:03:28.837Z,4.65
2022-10-12T09:08:46.684Z,13.98
2022-10-12T09:14:02.425Z,24.20
2022-10-12T09:19:13.908Z,9.25
2022-10-12T09:24:20.554Z,13.68
2022-10-12T09:29:27.679Z,7.28
2022-10-12T09:34:30.514Z,7.13
2022-10-12T09:39:37.488Z,9.23
2022-10-12T09:44:44.634Z,6.65
2022-10-12T09:49:50.155Z,6.82
2022-10-12T09:54:56.181Z,5.97
2022-10-12T09:59:59.106Z,9.15
2022-10-12T10:05:23.354Z,6.43
2022-10-12T10:10:30.416Z,7.38
2022-10-12T10:15:35.898Z,7.93
2022-10-12T10:20:44.913Z,6.63
2022-10-12T10:25:57.969Z,8.30
2022-10-12T10:31:03.001Z,7.95
2022-10-12T10:36:16.656Z,8.10
2022-10-12T10:41:21.547Z,5.00
2022-10-12T10:46:26.223Z,6.65
2022-10-12T10:51:49.237Z,6.53
2022-10-12T10:56:58.428Z,8.98
2022-10-12T11:02:06.684Z,7.95
2022-10-12T11:07:18.904Z,8.85
2022-10-12T11:12:31.141Z,6.07
2022-10-12T11:17:39.000Z,5.55
2022-10-12T11:22:49.118Z,8.88
2022-10-12T11:27:54.002Z,5.15
2022-10-12T11:33:02.584Z,5.25
2022-10-12T11:38:14.211Z,6.07
2022-10-12T11:43:22.877Z,6.88
2022-10-12T11:48:31.210Z,4.60
2022-10-12T11:53:44.872Z,8.45
2022-10-12T11:59:00.916Z,4.78
2022-10-12T12:04:39.860Z,6.63
2022-10-12T12:09:45.244Z,9.52
2022-10-12T12:15:22.413Z,6.93
2022-10-12T12:21:04.987Z,8.63
2022-10-12T12:26:17.365Z,7.07
2022-10-12T12:31:28.755Z,6.80
2022-10-12T12:36:35.074Z,5.45
2022-10-12T12:41:56.320Z,5.05
2022-10-12T12:52:45.540Z,8.00
2022-10-12T12:58:09.430Z,7.05
2022-10-12T13:04:03.277Z,7.38
2022-10-12T13:09:34.224Z,5.78
2022-10-12T13:14:55.554Z,7.90
2022-10-12T13:19:58.428Z,4.45
2022-10-12T13:25:05.133Z,5.80
2022-10-12T13:30:16.614Z,9.00
2022-10-12T13:35:29.880Z,10.50
2022-10-12T13:40:38.699Z,6.13
2022-10-12T13:45:45.758Z,5.72
2022-10-12T13:50:52.618Z,5.70
2022-10-12T13:56:00.952Z,4.93
2022-10-12T14:01:04.783Z,8.10
2022-10-12T14:06:22.186Z,5.30
2022-10-12T14:11:27.349Z,8.05
2022-10-12T14:16:30.310Z,7.03
2022-10-12T14:21:36.757Z,9.10
2022-10-12T14:26:43.052Z,5.45
2022-10-12T14:31:48.884Z,6.35
2022-10-12T14:37:01.224Z,9.82
2022-10-12T14:42:19.080Z,8.60
2022-10-12T14:47:23.859Z,16.75
2022-10-12T14:52:33.962Z,8.27
2022-10-12T14:57:38.029Z,8.52
2022-10-12T15:02:43.180Z,8.68
2022-10-12T15:07:46.879Z,7.28
2022-10-12T15:12:51.778Z,9.27
2022-10-12T15:17:54.568Z,11.35
2022-10-12T15:22:57.663Z,9.07
2022-10-12T15:28:01.911Z,13.23
2022-10-12T15:33:04.844Z,10.82
2022-10-12T15:38:10.071Z,11.30
2022-10-12T15:48:22.331Z,12.18
2022-10-12T15:53:27.356Z,11.93
2022-10-12T15:58:31.413Z,9.55
2022-10-12T16:03:34.201Z,13.95
2022-10-12T16:08:37.018Z,9.38
2022-10-12T16:13:47.937Z,9.90
2022-10-12T16:18:54.109Z,8.85
2022-10-12T16:23:56.983Z,9.88
2022-10-12T16:29:01.110Z,17.67
2022-10-12T16:34:03.914Z,11.70
2022-10-12T16:39:06.654Z,10.63
2022-10-12T16:44:10.748Z,11.77
2022-10-12T16:49:13.499Z,13.05
2022-10-12T16:54:17.239Z,11.00
2022-10-12T16:59:21.330Z,11.95
2022-10-12T17:04:24.063Z,14.02
2022-10-12T17:09:27.585Z,16.38
2022-10-12T17:14:31.749Z,14.15
2022-10-12T17:19:37.292Z,12.80
2022-10-12T17:24:42.276Z,14.35
2022-10-12T17:29:46.402Z,14.73
2022-10-12T17:34:49.219Z,16.60
2022-10-12T17:39:52.248Z,13.20
2022-10-12T17:44:56.415Z,14.48
2022-10-12T17:49:59.134Z,15.15
2022-10-12T17:55:01.960Z,14.38
2022-10-12T18:00:09.725Z,15.27
2022-10-12T18:05:12.612Z,22.63
2022-10-12T18:10:15.364Z,11.65
2022-10-12T18:15:23.086Z,12.35
2022-10-12T18:20:25.969Z,12.70
2022-10-12T18:25:28.692Z,16.30
2022-10-12T18:30:34.551Z,14.45
2022-10-12T18:35:37.301Z,16.67
2022-10-12T18:40:42.407Z,21.63
2022-10-12T18:45:47.024Z,19.30
2022-10-12T18:50:49.813Z,13.68
2022-10-12T18:55:52.566Z,18.88
2022-10-12T19:00:56.694Z,15.95
2022-10-12T19:06:05.240Z,15.10
2022-10-12T19:11:09.065Z,14.90
2022-10-12T19:16:17.176Z,15.82
2022-10-12T19:21:20.014Z,13.50
2022-10-12T19:26:26.672Z,14.43
2022-10-12T19:31:32.602Z,17.65
2022-10-12T19:36:36.069Z,15.30
2022-10-12T19:41:38.959Z,15.20
2022-10-12T19:46:47.120Z,14.48
2022-10-12T19:51:49.899Z,17.67
2022-10-12T19:56:52.791Z,14.63
2022-10-12T20:01:56.864Z,17.95
2022-10-12T20:06:59.608Z,18.20
2022-10-12T20:12:02.881Z,15.55
2022-10-12T20:17:06.987Z,18.70
2022-10-12T20:22:09.737Z,14.63
2022-10-12T20:27:12.506Z,16.50
2022-10-12T20:32:16.905Z,18.80
2022-10-12T20:37:21.494Z,21.57
2022-10-12T20:42:24.757Z,15.23
2022-10-12T20:47:29.045Z,17.90
2022-10-12T20:52:32.014Z,22.87
2022-10-12T20:57:34.751Z,14.77
2022-10-12T21:02:39.165Z,16.60
2022-10-12T21:07:42.878Z,13.77
2022-10-12T21:12:45.635Z,20.27
2022-10-12T21:17:49.772Z,20.13
2022-10-12T21:22:52.538Z,18.37
2022-10-12T21:27:55.356Z,17.50
2022-10-12T21:32:59.442Z,19.60
2022-10-12T21:38:02.613Z,15.80
2022-10-12T21:43:05.385Z,16.27
2022-10-12T21:48:09.467Z,11.63
2022-10-12T21:53:13.679Z,18.97
2022-10-12T21:58:16.399Z,16.33
2022-10-12T22:03:20.781Z,16.13
2022-10-12T22:08:23.530Z,18.67
2022-10-12T22:13:26.312Z,15.43
2022-10-12T22:18:30.638Z,15.87
2022-10-12T22:23:33.857Z,15.57
2022-10-12T22:28:36.796Z,16.90
2022-10-12T22:33:41.558Z,14.60
2022-10-12T22:38:45.088Z,17.30
2022-10-12T22:43:48.164Z,14.57
2022-10-12T22:48:52.703Z,19.13
2022-10-12T22:53:55.462Z,18.63
2022-10-12T22:58:59.705Z,12.97
2022-10-12T23:04:03.918Z,15.83
2022-10-12T23:09:07.204Z,13.23
2022-10-12T23:14:11.840Z,14.43
2022-10-12T23:19:16.048Z,16.47
2022-10-12T23:24:18.939Z,12.83
2022-10-12T23:29:21.735Z,16.23
2022-10-12T23:34:25.893Z,14.97
2022-10-12T23:39:28.654Z,17.97
2022-10-12T23:44:31.398Z,20.57
2022-10-12T23:49:35.588Z,14.27
2022-10-12T23:54:38.336Z,23.47
2022-10-12T23:59:41.134Z,14.83
